<?xml version="1.0" encoding="UTF-8" standalone="no" ?><gpx xmlns="http://www.topografix.com/GPX/1/1" xmlns:gpxx="http://www.garmin.com/xmlschemas/GpxExtensions/v3" xmlns:gpxtrkx="http://www.garmin.com/xmlschemas/TrackStatsExtension/v1" xmlns:wptx1="http://www.garmin.com/xmlschemas/WaypointExtension/v1" xmlns:gpxtpx="http://www.garmin.com/xmlschemas/TrackPointExtension/v1" creator="Oregon 700" version="1.1" xmlns:xsi="http://www.w3.org/2001/XMLSchema-instance" xsi:schemaLocation="http://www.topografix.com/GPX/1/1 http://www.topografix.com/GPX/1/1/gpx.xsd http://www.garmin.com/xmlschemas/GpxExtensions/v3 http://www8.garmin.com/xmlschemas/GpxExtensionsv3.xsd http://www.garmin.com/xmlschemas/TrackStatsExtension/v1 http://www8.garmin.com/xmlschemas/TrackStatsExtension.xsd http://www.garmin.com/xmlschemas/WaypointExtension/v1 http://www8.garmin.com/xmlschemas/WaypointExtensionv1.xsd http://www.garmin.com/xmlschemas/TrackPointExtension/v1 http://www.garmin.com/xmlschemas/TrackPointExtensionv1.xsd"><metadata><link href="http://www.garmin.com"><text>Garmin International</text></link><time>2022-01-26T11:32:13Z</time></metadata><trk><name>Current Track: 26 JAN 2022 09:46</name><extensions><gpxx:TrackExtension><gpxx:DisplayColor>Cyan</gpxx:DisplayColor></gpxx:TrackExtension><gpxtrkx:TrackStatsExtension><gpxtrkx:Distance>4048.000</gpxtrkx:Distance><gpxtrkx:TimerTime>6611</gpxtrkx:TimerTime><gpxtrkx:TotalElapsedTime>6611</gpxtrkx:TotalElapsedTime><gpxtrkx:MovingTime>5590</gpxtrkx:MovingTime><gpxtrkx:StoppedTime>1068</gpxtrkx:StoppedTime><gpxtrkx:MovingSpeed>0.733</gpxtrkx:MovingSpeed><gpxtrkx:MaxSpeed>1.393</gpxtrkx:MaxSpeed><gpxtrkx:MaxElevation>36.345</gpxtrkx:MaxElevation><gpxtrkx:MinElevation>-18.961</gpxtrkx:MinElevation><gpxtrkx:Ascent>101.000</gpxtrkx:Ascent><gpxtrkx:Descent>88.296</gpxtrkx:Descent><gpxtrkx:AvgAscentRate>0.056</gpxtrkx:AvgAscentRate><gpxtrkx:MaxAscentRate>0.103</gpxtrkx:MaxAscentRate><gpxtrkx:AvgDescentRate>0.051</gpxtrkx:AvgDescentRate><gpxtrkx:MaxDescentRate>-0.112</gpxtrkx:MaxDescentRate><gpxtrkx:Calories>183</gpxtrkx:Calories></gpxtrkx:TrackStatsExtension></extensions><trkseg><trkpt lat="51.7779548373" lon="-2.0929145347"><ele>21.32</ele><time>2022-01-26T09:46:06Z</time></trkpt><trkpt lat="51.7779464554" lon="-2.0929050632"><ele>23.35</ele><time>2022-01-26T09:46:36Z</time></trkpt><trkpt lat="51.7779536638" lon="-2.0929035544"><ele>22.77</ele><time>2022-01-26T09:47:06Z</time></trkpt><trkpt lat="51.7779764626" lon="-2.0929021295"><ele>22.66</ele><time>2022-01-26T09:47:27Z</time></trkpt><trkpt lat="51.7780429311" lon="-2.0927936677"><ele>22.84</ele><time>2022-01-26T09:47:50Z</time></trkpt><trkpt lat="51.7780812364" lon="-2.0927002933"><ele>21.87</ele><time>2022-01-26T09:48:13Z</time></trkpt><trkpt lat="51.7781604454" lon="-2.0924974512"><ele>20.74</ele><time>2022-01-26T09:48:35Z</time></trkpt><trkpt lat="51.7782420013" lon="-2.0922740735"><ele>19.92</ele><time>2022-01-26T09:48:59Z</time></trkpt><trkpt lat="51.7782575078" lon="-2.0919413120"><ele>18.92</ele><time>2022-01-26T09:49:23Z</time></trkpt><trkpt lat="51.7781451065" lon="-2.0918416511"><ele>20.03</ele><time>2022-01-26T09:49:48Z</time></trkpt><trkpt lat="51.7780279275" lon="-2.0917304233"><ele>21.61</ele><time>2022-01-26T09:50:10Z</time></trkpt><trkpt lat="51.7779617105" lon="-2.0916393120"><ele>21.68</ele><time>2022-01-26T09:50:30Z</time></trkpt><trkpt lat="51.7778363172" lon="-2.0915063750"><ele>21.32</ele><time>2022-01-26T09:50:48Z</time></trkpt><trkpt lat="51.7777509056" lon="-2.0913990028"><ele>21.28</ele><time>2022-01-26T09:50:56Z</time></trkpt><trkpt lat="51.7776412703" lon="-2.0913161058"><ele>21.28</ele><time>2022-01-26T09:51:06Z</time></trkpt><trkpt lat="51.7775572836" lon="-2.0912155230"><ele>21.33</ele><time>2022-01-26T09:51:21Z</time></trkpt><trkpt lat="51.7775209900" lon="-2.0911836717"><ele>21.41</ele><time>2022-01-26T09:51:43Z</time></trkpt><trkpt lat="51.7774482351" lon="-2.0911094081"><ele>21.33</ele><time>2022-01-26T09:52:14Z</time></trkpt><trkpt lat="51.7773637455" lon="-2.0910737012"><ele>21.33</ele><time>2022-01-26T09:52:25Z</time></trkpt><trkpt lat="51.7772829439" lon="-2.0910490584"><ele>21.33</ele><time>2022-01-26T09:52:40Z</time></trkpt><trkpt lat="51.7772524338" lon="-2.0910259243"><ele>21.33</ele><time>2022-01-26T09:52:44Z</time></trkpt><trkpt lat="51.7771436367" lon="-2.0909242518"><ele>21.33</ele><time>2022-01-26T09:52:56Z</time></trkpt><trkpt lat="51.7770420481" lon="-2.0908074919"><ele>21.07</ele><time>2022-01-26T09:53:08Z</time></trkpt><trkpt lat="51.7769148108" lon="-2.0906660054"><ele>20.87</ele><time>2022-01-26T09:53:24Z</time></trkpt><trkpt lat="51.7768166587" lon="-2.0905935857"><ele>20.31</ele><time>2022-01-26T09:53:34Z</time></trkpt><trkpt lat="51.7766902596" lon="-2.0904953498"><ele>20.18</ele><time>2022-01-26T09:53:46Z</time></trkpt><trkpt lat="51.7765379604" lon="-2.0903989580"><ele>19.86</ele><time>2022-01-26T09:54:02Z</time></trkpt><trkpt lat="51.7764160037" lon="-2.0903424639"><ele>18.54</ele><time>2022-01-26T09:54:22Z</time></trkpt><trkpt lat="51.7761974875" lon="-2.0901319105"><ele>16.93</ele><time>2022-01-26T09:54:44Z</time></trkpt><trkpt lat="51.7761775386" lon="-2.0899898373"><ele>15.86</ele><time>2022-01-26T09:55:08Z</time></trkpt><trkpt lat="51.7761760298" lon="-2.0899427310"><ele>15.78</ele><time>2022-01-26T09:55:29Z</time></trkpt><trkpt lat="51.7761754431" lon="-2.0899299067"><ele>15.80</ele><time>2022-01-26T09:55:57Z</time></trkpt><trkpt lat="51.7761606071" lon="-2.0899304934"><ele>15.63</ele><time>2022-01-26T09:56:19Z</time></trkpt><trkpt lat="51.7761389818" lon="-2.0899654459"><ele>15.48</ele><time>2022-01-26T09:56:35Z</time></trkpt><trkpt lat="51.7760513909" lon="-2.0899319183"><ele>15.01</ele><time>2022-01-26T09:56:45Z</time></trkpt><trkpt lat="51.7758658994" lon="-2.0898186788"><ele>13.57</ele><time>2022-01-26T09:57:01Z</time></trkpt><trkpt lat="51.7757371534" lon="-2.0897141565"><ele>13.54</ele><time>2022-01-26T09:57:11Z</time></trkpt><trkpt lat="51.7756148614" lon="-2.0895063691"><ele>15.26</ele><time>2022-01-26T09:57:30Z</time></trkpt><trkpt lat="51.7755085789" lon="-2.0894298423"><ele>15.12</ele><time>2022-01-26T09:57:52Z</time></trkpt><trkpt lat="51.7754968442" lon="-2.0894197002"><ele>13.68</ele><time>2022-01-26T09:57:55Z</time></trkpt><trkpt lat="51.7754442897" lon="-2.0893782936"><ele>17.40</ele><time>2022-01-26T09:57:59Z</time></trkpt><trkpt lat="51.7754048947" lon="-2.0893754438"><ele>16.13</ele><time>2022-01-26T09:58:18Z</time></trkpt><trkpt lat="51.7752076685" lon="-2.0892842487"><ele>16.52</ele><time>2022-01-26T09:58:41Z</time></trkpt><trkpt lat="51.7750257812" lon="-2.0891692489"><ele>17.22</ele><time>2022-01-26T09:59:02Z</time></trkpt><trkpt lat="51.7749805190" lon="-2.0891446900"><ele>17.33</ele><time>2022-01-26T09:59:07Z</time></trkpt><trkpt lat="51.7748072650" lon="-2.0890517347"><ele>18.03</ele><time>2022-01-26T09:59:27Z</time></trkpt><trkpt lat="51.7746438179" lon="-2.0889712684"><ele>18.54</ele><time>2022-01-26T09:59:46Z</time></trkpt><trkpt lat="51.7745003197" lon="-2.0888792351"><ele>19.23</ele><time>2022-01-26T10:00:04Z</time></trkpt><trkpt lat="51.7743740045" lon="-2.0888639800"><ele>19.51</ele><time>2022-01-26T10:00:20Z</time></trkpt><trkpt lat="51.7742139101" lon="-2.0888107549"><ele>20.28</ele><time>2022-01-26T10:00:39Z</time></trkpt><trkpt lat="51.7741278280" lon="-2.0887889620"><ele>20.24</ele><time>2022-01-26T10:00:54Z</time></trkpt><trkpt lat="51.7740913667" lon="-2.0887894649"><ele>20.60</ele><time>2022-01-26T10:01:18Z</time></trkpt><trkpt lat="51.7740849126" lon="-2.0887841843"><ele>20.80</ele><time>2022-01-26T10:01:49Z</time></trkpt><trkpt lat="51.7740803026" lon="-2.0887951646"><ele>20.56</ele><time>2022-01-26T10:02:12Z</time></trkpt><trkpt lat="51.7740062904" lon="-2.0887751319"><ele>20.56</ele><time>2022-01-26T10:02:31Z</time></trkpt><trkpt lat="51.7738613673" lon="-2.0887676720"><ele>20.77</ele><time>2022-01-26T10:02:48Z</time></trkpt><trkpt lat="51.7737188749" lon="-2.0887672529"><ele>20.91</ele><time>2022-01-26T10:03:05Z</time></trkpt><trkpt lat="51.7736234888" lon="-2.0887534227"><ele>21.01</ele><time>2022-01-26T10:03:21Z</time></trkpt><trkpt lat="51.7734518275" lon="-2.0887171291"><ele>21.29</ele><time>2022-01-26T10:03:42Z</time></trkpt><trkpt lat="51.7733102571" lon="-2.0887118485"><ele>21.67</ele><time>2022-01-26T10:03:58Z</time></trkpt><trkpt lat="51.7731320579" lon="-2.0886784885"><ele>21.22</ele><time>2022-01-26T10:04:19Z</time></trkpt><trkpt lat="51.7729672696" lon="-2.0885858685"><ele>20.95</ele><time>2022-01-26T10:04:39Z</time></trkpt><trkpt lat="51.7728443909" lon="-2.0884795859"><ele>20.49</ele><time>2022-01-26T10:04:52Z</time></trkpt><trkpt lat="51.7726899125" lon="-2.0883636642"><ele>19.91</ele><time>2022-01-26T10:05:11Z</time></trkpt><trkpt lat="51.7725376133" lon="-2.0882709604"><ele>19.19</ele><time>2022-01-26T10:05:32Z</time></trkpt><trkpt lat="51.7723952048" lon="-2.0881726407"><ele>18.61</ele><time>2022-01-26T10:05:50Z</time></trkpt><trkpt lat="51.7722346913" lon="-2.0880835410"><ele>18.22</ele><time>2022-01-26T10:06:10Z</time></trkpt><trkpt lat="51.7721066158" lon="-2.0880060922"><ele>18.16</ele><time>2022-01-26T10:06:27Z</time></trkpt><trkpt lat="51.7719778698" lon="-2.0879362710"><ele>17.84</ele><time>2022-01-26T10:06:51Z</time></trkpt><trkpt lat="51.7718983255" lon="-2.0879589859"><ele>17.84</ele><time>2022-01-26T10:07:12Z</time></trkpt><trkpt lat="51.7719151732" lon="-2.0880680345"><ele>18.04</ele><time>2022-01-26T10:07:31Z</time></trkpt><trkpt lat="51.7718535662" lon="-2.0881843753"><ele>18.03</ele><time>2022-01-26T10:07:43Z</time></trkpt><trkpt lat="51.7718084715" lon="-2.0884667616"><ele>18.85</ele><time>2022-01-26T10:08:02Z</time></trkpt><trkpt lat="51.7717859242" lon="-2.0887644868"><ele>19.91</ele><time>2022-01-26T10:08:24Z</time></trkpt><trkpt lat="51.7717907857" lon="-2.0890494715"><ele>20.96</ele><time>2022-01-26T10:08:53Z</time></trkpt><trkpt lat="51.7717683222" lon="-2.0893186983"><ele>21.31</ele><time>2022-01-26T10:09:14Z</time></trkpt><trkpt lat="51.7717512231" lon="-2.0895467699"><ele>21.74</ele><time>2022-01-26T10:09:33Z</time></trkpt><trkpt lat="51.7717415001" lon="-2.0897629391"><ele>22.34</ele><time>2022-01-26T10:09:51Z</time></trkpt><trkpt lat="51.7717337050" lon="-2.0900020748"><ele>22.72</ele><time>2022-01-26T10:10:11Z</time></trkpt><trkpt lat="51.7717126664" lon="-2.0902162325"><ele>23.37</ele><time>2022-01-26T10:10:29Z</time></trkpt><trkpt lat="51.7716882750" lon="-2.0904621575"><ele>23.83</ele><time>2022-01-26T10:10:52Z</time></trkpt><trkpt lat="51.7716324516" lon="-2.0908094198"><ele>24.41</ele><time>2022-01-26T10:11:18Z</time></trkpt><trkpt lat="51.7715961579" lon="-2.0910545066"><ele>24.75</ele><time>2022-01-26T10:11:37Z</time></trkpt><trkpt lat="51.7715937272" lon="-2.0912076440"><ele>25.37</ele><time>2022-01-26T10:11:57Z</time></trkpt><trkpt lat="51.7715677433" lon="-2.0914187841"><ele>25.43</ele><time>2022-01-26T10:12:19Z</time></trkpt><trkpt lat="51.7714878637" lon="-2.0915511344"><ele>25.81</ele><time>2022-01-26T10:12:34Z</time></trkpt><trkpt lat="51.7713554297" lon="-2.0917355362"><ele>26.06</ele><time>2022-01-26T10:12:59Z</time></trkpt><trkpt lat="51.7711822595" lon="-2.0919817127"><ele>26.34</ele><time>2022-01-26T10:13:25Z</time></trkpt><trkpt lat="51.7711004522" lon="-2.0921334252"><ele>26.73</ele><time>2022-01-26T10:13:42Z</time></trkpt><trkpt lat="51.7709456384" lon="-2.0923262089"><ele>26.66</ele><time>2022-01-26T10:14:03Z</time></trkpt><trkpt lat="51.7708186526" lon="-2.0925127063"><ele>26.49</ele><time>2022-01-26T10:14:21Z</time></trkpt><trkpt lat="51.7707040720" lon="-2.0927101839"><ele>26.66</ele><time>2022-01-26T10:14:39Z</time></trkpt><trkpt lat="51.7706018128" lon="-2.0928719547"><ele>26.90</ele><time>2022-01-26T10:14:57Z</time></trkpt><trkpt lat="51.7704992183" lon="-2.0930602960"><ele>27.11</ele><time>2022-01-26T10:15:17Z</time></trkpt><trkpt lat="51.7704190034" lon="-2.0932066441"><ele>26.81</ele><time>2022-01-26T10:15:32Z</time></trkpt><trkpt lat="51.7703233659" lon="-2.0934032835"><ele>27.03</ele><time>2022-01-26T10:15:50Z</time></trkpt><trkpt lat="51.7702531256" lon="-2.0935492124"><ele>26.89</ele><time>2022-01-26T10:16:08Z</time></trkpt><trkpt lat="51.7702440731" lon="-2.0935922116"><ele>27.04</ele><time>2022-01-26T10:16:27Z</time></trkpt><trkpt lat="51.7701941170" lon="-2.0936512202"><ele>27.11</ele><time>2022-01-26T10:16:53Z</time></trkpt><trkpt lat="51.7701180931" lon="-2.0938321017"><ele>27.10</ele><time>2022-01-26T10:17:12Z</time></trkpt><trkpt lat="51.7699948791" lon="-2.0941270608"><ele>26.52</ele><time>2022-01-26T10:17:40Z</time></trkpt><trkpt lat="51.7699128203" lon="-2.0944201760"><ele>26.45</ele><time>2022-01-26T10:18:01Z</time></trkpt><trkpt lat="51.7698231339" lon="-2.0948613994"><ele>26.00</ele><time>2022-01-26T10:18:32Z</time></trkpt><trkpt lat="51.7697533127" lon="-2.0951700211"><ele>25.11</ele><time>2022-01-26T10:18:57Z</time></trkpt><trkpt lat="51.7697269097" lon="-2.0953307860"><ele>24.78</ele><time>2022-01-26T10:19:08Z</time></trkpt><trkpt lat="51.7696701642" lon="-2.0956248231"><ele>24.31</ele><time>2022-01-26T10:19:28Z</time></trkpt><trkpt lat="51.7696645483" lon="-2.0958054531"><ele>23.12</ele><time>2022-01-26T10:19:53Z</time></trkpt><trkpt lat="51.7696305178" lon="-2.0958785433"><ele>24.14</ele><time>2022-01-26T10:20:13Z</time></trkpt><trkpt lat="51.7696091440" lon="-2.0959302597"><ele>20.62</ele><time>2022-01-26T10:20:20Z</time></trkpt><trkpt lat="51.7696282547" lon="-2.0959322713"><ele>24.57</ele><time>2022-01-26T10:20:26Z</time></trkpt><trkpt lat="51.7696432583" lon="-2.0960466005"><ele>22.31</ele><time>2022-01-26T10:20:36Z</time></trkpt><trkpt lat="51.7696387321" lon="-2.0962181780"><ele>23.74</ele><time>2022-01-26T10:20:49Z</time></trkpt><trkpt lat="51.7697321903" lon="-2.0965537895"><ele>20.73</ele><time>2022-01-26T10:21:07Z</time></trkpt><trkpt lat="51.7697618622" lon="-2.0967780892"><ele>19.16</ele><time>2022-01-26T10:21:26Z</time></trkpt><trkpt lat="51.7697730940" lon="-2.0968567114"><ele>19.56</ele><time>2022-01-26T10:21:42Z</time></trkpt><trkpt lat="51.7697968986" lon="-2.0970084239"><ele>17.98</ele><time>2022-01-26T10:21:54Z</time></trkpt><trkpt lat="51.7698297556" lon="-2.0971401874"><ele>17.00</ele><time>2022-01-26T10:22:03Z</time></trkpt><trkpt lat="51.7698611040" lon="-2.0973891299"><ele>14.63</ele><time>2022-01-26T10:22:21Z</time></trkpt><trkpt lat="51.7698788736" lon="-2.0976441074"><ele>13.42</ele><time>2022-01-26T10:22:41Z</time></trkpt><trkpt lat="51.7699255608" lon="-2.0978600252"><ele>12.79</ele><time>2022-01-26T10:23:00Z</time></trkpt><trkpt lat="51.7699242197" lon="-2.0978192892"><ele>12.40</ele><time>2022-01-26T10:23:23Z</time></trkpt><trkpt lat="51.7699346971" lon="-2.0980010927"><ele>11.97</ele><time>2022-01-26T10:23:41Z</time></trkpt><trkpt lat="51.7699743435" lon="-2.0981239714"><ele>11.70</ele><time>2022-01-26T10:23:57Z</time></trkpt><trkpt lat="51.7699797079" lon="-2.0983165037"><ele>10.61</ele><time>2022-01-26T10:24:13Z</time></trkpt><trkpt lat="51.7700393870" lon="-2.0984707307"><ele>10.23</ele><time>2022-01-26T10:24:26Z</time></trkpt><trkpt lat="51.7701053526" lon="-2.0986082777"><ele>9.51</ele><time>2022-01-26T10:24:43Z</time></trkpt><trkpt lat="51.7701248825" lon="-2.0989521034"><ele>8.70</ele><time>2022-01-26T10:25:09Z</time></trkpt><trkpt lat="51.7701191828" lon="-2.0991038159"><ele>8.53</ele><time>2022-01-26T10:25:27Z</time></trkpt><trkpt lat="51.7701019160" lon="-2.0992629882"><ele>7.83</ele><time>2022-01-26T10:25:40Z</time></trkpt><trkpt lat="51.7701450828" lon="-2.0994552691"><ele>7.08</ele><time>2022-01-26T10:26:03Z</time></trkpt><trkpt lat="51.7702050973" lon="-2.0996115915"><ele>6.65</ele><time>2022-01-26T10:26:23Z</time></trkpt><trkpt lat="51.7702591605" lon="-2.0997365657"><ele>6.58</ele><time>2022-01-26T10:26:44Z</time></trkpt><trkpt lat="51.7703797761" lon="-2.0998414233"><ele>6.13</ele><time>2022-01-26T10:27:06Z</time></trkpt><trkpt lat="51.7704941053" lon="-2.0999665651"><ele>6.21</ele><time>2022-01-26T10:27:29Z</time></trkpt><trkpt lat="51.7706283834" lon="-2.1001150925"><ele>6.93</ele><time>2022-01-26T10:27:49Z</time></trkpt><trkpt lat="51.7707460653" lon="-2.1002196148"><ele>7.66</ele><time>2022-01-26T10:28:05Z</time></trkpt><trkpt lat="51.7708473187" lon="-2.1003038529"><ele>7.69</ele><time>2022-01-26T10:28:22Z</time></trkpt><trkpt lat="51.7708755657" lon="-2.1003435832"><ele>7.81</ele><time>2022-01-26T10:28:40Z</time></trkpt><trkpt lat="51.7708832771" lon="-2.1003637835"><ele>8.20</ele><time>2022-01-26T10:29:01Z</time></trkpt><trkpt lat="51.7708698660" lon="-2.1003734227"><ele>8.50</ele><time>2022-01-26T10:29:24Z</time></trkpt><trkpt lat="51.7708680220" lon="-2.1005256381"><ele>8.27</ele><time>2022-01-26T10:29:45Z</time></trkpt><trkpt lat="51.7709315568" lon="-2.1007801965"><ele>8.27</ele><time>2022-01-26T10:30:09Z</time></trkpt><trkpt lat="51.7709377594" lon="-2.1008796897"><ele>8.27</ele><time>2022-01-26T10:30:33Z</time></trkpt><trkpt lat="51.7709361669" lon="-2.1008634288"><ele>8.27</ele><time>2022-01-26T10:30:51Z</time></trkpt><trkpt lat="51.7708838638" lon="-2.1011619084"><ele>8.27</ele><time>2022-01-26T10:31:15Z</time></trkpt><trkpt lat="51.7708697822" lon="-2.1012508404"><ele>8.27</ele><time>2022-01-26T10:31:20Z</time></trkpt><trkpt lat="51.7708484922" lon="-2.1013103519"><ele>8.27</ele><time>2022-01-26T10:31:24Z</time></trkpt><trkpt lat="51.7708316445" lon="-2.1013909020"><ele>5.56</ele><time>2022-01-26T10:31:29Z</time></trkpt><trkpt lat="51.7708096839" lon="-2.1015571989"><ele>5.20</ele><time>2022-01-26T10:31:43Z</time></trkpt><trkpt lat="51.7707939260" lon="-2.1017089114"><ele>5.88</ele><time>2022-01-26T10:32:03Z</time></trkpt><trkpt lat="51.7707738094" lon="-2.1018609591"><ele>5.35</ele><time>2022-01-26T10:32:30Z</time></trkpt><trkpt lat="51.7707680259" lon="-2.1018682513"><ele>5.35</ele><time>2022-01-26T10:32:53Z</time></trkpt><trkpt lat="51.7707602307" lon="-2.1019525733"><ele>5.35</ele><time>2022-01-26T10:33:13Z</time></trkpt><trkpt lat="51.7707859632" lon="-2.1019245777"><ele>5.35</ele><time>2022-01-26T10:33:34Z</time></trkpt><trkpt lat="51.7708349135" lon="-2.1018591151"><ele>5.35</ele><time>2022-01-26T10:33:55Z</time></trkpt><trkpt lat="51.7708353326" lon="-2.1018616296"><ele>5.35</ele><time>2022-01-26T10:34:19Z</time></trkpt><trkpt lat="51.7708153836" lon="-2.1018604562"><ele>5.35</ele><time>2022-01-26T10:34:43Z</time></trkpt><trkpt lat="51.7708101030" lon="-2.1018162835"><ele>5.35</ele><time>2022-01-26T10:35:10Z</time></trkpt><trkpt lat="51.7708145455" lon="-2.1018399205"><ele>5.35</ele><time>2022-01-26T10:35:31Z</time></trkpt><trkpt lat="51.7708045710" lon="-2.1018581931"><ele>5.35</ele><time>2022-01-26T10:35:52Z</time></trkpt><trkpt lat="51.7708210833" lon="-2.1018920559"><ele>5.35</ele><time>2022-01-26T10:36:14Z</time></trkpt><trkpt lat="51.7708250228" lon="-2.1018935647"><ele>5.35</ele><time>2022-01-26T10:36:40Z</time></trkpt><trkpt lat="51.7708398588" lon="-2.1018546727"><ele>5.35</ele><time>2022-01-26T10:37:06Z</time></trkpt><trkpt lat="51.7708515096" lon="-2.1018047165"><ele>5.35</ele><time>2022-01-26T10:37:28Z</time></trkpt><trkpt lat="51.7707666848" lon="-2.1018052194"><ele>5.35</ele><time>2022-01-26T10:37:47Z</time></trkpt><trkpt lat="51.7707939260" lon="-2.1017959993"><ele>5.35</ele><time>2022-01-26T10:37:53Z</time></trkpt><trkpt lat="51.7707865499" lon="-2.1018518228"><ele>5.35</ele><time>2022-01-26T10:38:14Z</time></trkpt><trkpt lat="51.7707467359" lon="-2.1020062175"><ele>5.35</ele><time>2022-01-26T10:38:31Z</time></trkpt><trkpt lat="51.7707654275" lon="-2.1020228975"><ele>3.85</ele><time>2022-01-26T10:38:38Z</time></trkpt><trkpt lat="51.7707605660" lon="-2.1019136813"><ele>3.10</ele><time>2022-01-26T10:38:57Z</time></trkpt><trkpt lat="51.7707962729" lon="-2.1019328758"><ele>2.90</ele><time>2022-01-26T10:39:07Z</time></trkpt><trkpt lat="51.7708240170" lon="-2.1019001026"><ele>3.99</ele><time>2022-01-26T10:39:28Z</time></trkpt><trkpt lat="51.7708582152" lon="-2.1018103324"><ele>4.08</ele><time>2022-01-26T10:39:51Z</time></trkpt><trkpt lat="51.7708391044" lon="-2.1018050518"><ele>4.08</ele><time>2022-01-26T10:39:56Z</time></trkpt><trkpt lat="51.7708308063" lon="-2.1018210612"><ele>4.08</ele><time>2022-01-26T10:40:16Z</time></trkpt><trkpt lat="51.7708078399" lon="-2.1018661559"><ele>4.08</ele><time>2022-01-26T10:40:21Z</time></trkpt><trkpt lat="51.7708333209" lon="-2.1018913016"><ele>4.08</ele><time>2022-01-26T10:40:43Z</time></trkpt><trkpt lat="51.7708557006" lon="-2.1018871944"><ele>4.08</ele><time>2022-01-26T10:41:08Z</time></trkpt><trkpt lat="51.7708637472" lon="-2.1018530801"><ele>4.08</ele><time>2022-01-26T10:41:30Z</time></trkpt><trkpt lat="51.7708862945" lon="-2.1018751245"><ele>4.08</ele><time>2022-01-26T10:41:52Z</time></trkpt><trkpt lat="51.7709034774" lon="-2.1018354781"><ele>4.08</ele><time>2022-01-26T10:42:28Z</time></trkpt><trkpt lat="51.7709002085" lon="-2.1018453687"><ele>4.08</ele><time>2022-01-26T10:42:48Z</time></trkpt><trkpt lat="51.7708930001" lon="-2.1018420160"><ele>4.08</ele><time>2022-01-26T10:43:09Z</time></trkpt><trkpt lat="51.7708799243" lon="-2.1018839255"><ele>4.08</ele><time>2022-01-26T10:43:30Z</time></trkpt><trkpt lat="51.7708681058" lon="-2.1018700115"><ele>4.08</ele><time>2022-01-26T10:43:52Z</time></trkpt><trkpt lat="51.7708829418" lon="-2.1018764656"><ele>4.08</ele><time>2022-01-26T10:44:17Z</time></trkpt><trkpt lat="51.7708823550" lon="-2.1018324606"><ele>4.08</ele><time>2022-01-26T10:44:41Z</time></trkpt><trkpt lat="51.7708810978" lon="-2.1018365677"><ele>4.08</ele><time>2022-01-26T10:45:07Z</time></trkpt><trkpt lat="51.7708744761" lon="-2.1018125117"><ele>4.08</ele><time>2022-01-26T10:45:33Z</time></trkpt><trkpt lat="51.7708234303" lon="-2.1018115897"><ele>4.08</ele><time>2022-01-26T10:45:54Z</time></trkpt><trkpt lat="51.7707956862" lon="-2.1018379927"><ele>4.08</ele><time>2022-01-26T10:46:17Z</time></trkpt><trkpt lat="51.7707760725" lon="-2.1018402558"><ele>4.08</ele><time>2022-01-26T10:46:40Z</time></trkpt><trkpt lat="51.7707697023" lon="-2.1018210612"><ele>4.08</ele><time>2022-01-26T10:46:55Z</time></trkpt><trkpt lat="51.7707749829" lon="-2.1017872822"><ele>4.08</ele><time>2022-01-26T10:47:12Z</time></trkpt><trkpt lat="51.7707640864" lon="-2.1017842647"><ele>4.08</ele><time>2022-01-26T10:47:33Z</time></trkpt><trkpt lat="51.7707874719" lon="-2.1017877851"><ele>4.08</ele><time>2022-01-26T10:47:58Z</time></trkpt><trkpt lat="51.7707417067" lon="-2.1018845122"><ele>4.08</ele><time>2022-01-26T10:48:20Z</time></trkpt><trkpt lat="51.7707463168" lon="-2.1018475480"><ele>4.08</ele><time>2022-01-26T10:48:41Z</time></trkpt><trkpt lat="51.7707452271" lon="-2.1018141881"><ele>4.08</ele><time>2022-01-26T10:49:04Z</time></trkpt><trkpt lat="51.7707800958" lon="-2.1018044651"><ele>4.08</ele><time>2022-01-26T10:49:33Z</time></trkpt><trkpt lat="51.7708288785" lon="-2.1018295269"><ele>4.08</ele><time>2022-01-26T10:49:54Z</time></trkpt><trkpt lat="51.7708443850" lon="-2.1018463746"><ele>4.08</ele><time>2022-01-26T10:50:14Z</time></trkpt><trkpt lat="51.7708562035" lon="-2.1018616296"><ele>4.08</ele><time>2022-01-26T10:50:39Z</time></trkpt><trkpt lat="51.7708494980" lon="-2.1018825844"><ele>4.08</ele><time>2022-01-26T10:50:47Z</time></trkpt><trkpt lat="51.7707726359" lon="-2.1018762980"><ele>4.08</ele><time>2022-01-26T10:51:08Z</time></trkpt><trkpt lat="51.7707207520" lon="-2.1019109990"><ele>4.08</ele><time>2022-01-26T10:51:26Z</time></trkpt><trkpt lat="51.7707213387" lon="-2.1019270085"><ele>4.08</ele><time>2022-01-26T10:51:48Z</time></trkpt><trkpt lat="51.7707621586" lon="-2.1018683352"><ele>4.08</ele><time>2022-01-26T10:52:02Z</time></trkpt><trkpt lat="51.7707897350" lon="-2.1018860210"><ele>4.08</ele><time>2022-01-26T10:52:24Z</time></trkpt><trkpt lat="51.7706541158" lon="-2.1020022780"><ele>4.08</ele><time>2022-01-26T10:52:41Z</time></trkpt><trkpt lat="51.7706444766" lon="-2.1020252444"><ele>1.46</ele><time>2022-01-26T10:52:50Z</time></trkpt><trkpt lat="51.7706436384" lon="-2.1020284295"><ele>-0.27</ele><time>2022-01-26T10:52:53Z</time></trkpt><trkpt lat="51.7706213426" lon="-2.1021075547"><ele>1.67</ele><time>2022-01-26T10:53:19Z</time></trkpt><trkpt lat="51.7705942690" lon="-2.1023285855"><ele>2.23</ele><time>2022-01-26T10:53:34Z</time></trkpt><trkpt lat="51.7705713026" lon="-2.1025378816"><ele>1.46</ele><time>2022-01-26T10:53:57Z</time></trkpt><trkpt lat="51.7705655191" lon="-2.1026726626"><ele>1.01</ele><time>2022-01-26T10:54:07Z</time></trkpt><trkpt lat="51.7705455702" lon="-2.1028372832"><ele>0.75</ele><time>2022-01-26T10:54:58Z</time></trkpt><trkpt lat="51.7705297284" lon="-2.1028925199"><ele>-2.81</ele><time>2022-01-26T10:55:18Z</time></trkpt><trkpt lat="51.7705278005" lon="-2.1028985549"><ele>-6.63</ele><time>2022-01-26T10:55:21Z</time></trkpt><trkpt lat="51.7705285549" lon="-2.1028679609"><ele>-2.83</ele><time>2022-01-26T10:55:27Z</time></trkpt><trkpt lat="51.7705283035" lon="-2.1028734930"><ele>2.28</ele><time>2022-01-26T10:55:28Z</time></trkpt><trkpt lat="51.7705277167" lon="-2.1028768457"><ele>5.45</ele><time>2022-01-26T10:55:29Z</time></trkpt><trkpt lat="51.7705286387" lon="-2.1028812882"><ele>7.07</ele><time>2022-01-26T10:55:30Z</time></trkpt><trkpt lat="51.7705122940" lon="-2.1028623451"><ele>7.91</ele><time>2022-01-26T10:55:32Z</time></trkpt><trkpt lat="51.7704964522" lon="-2.1028575674"><ele>6.40</ele><time>2022-01-26T10:55:35Z</time></trkpt><trkpt lat="51.7705068458" lon="-2.1028713975"><ele>3.25</ele><time>2022-01-26T10:55:41Z</time></trkpt><trkpt lat="51.7705788463" lon="-2.1029713936"><ele>1.40</ele><time>2022-01-26T10:55:53Z</time></trkpt><trkpt lat="51.7706301436" lon="-2.1031785104"><ele>0.75</ele><time>2022-01-26T10:56:16Z</time></trkpt><trkpt lat="51.7706542835" lon="-2.1033013891"><ele>0.58</ele><time>2022-01-26T10:56:38Z</time></trkpt><trkpt lat="51.7707230151" lon="-2.1033950988"><ele>1.54</ele><time>2022-01-26T10:57:00Z</time></trkpt><trkpt lat="51.7708837800" lon="-2.1035515890"><ele>1.20</ele><time>2022-01-26T10:57:23Z</time></trkpt><trkpt lat="51.7710120231" lon="-2.1038121823"><ele>2.04</ele><time>2022-01-26T10:57:48Z</time></trkpt><trkpt lat="51.7710737977" lon="-2.1039169561"><ele>2.05</ele><time>2022-01-26T10:58:11Z</time></trkpt><trkpt lat="51.7710870411" lon="-2.1039223205"><ele>2.11</ele><time>2022-01-26T10:58:35Z</time></trkpt><trkpt lat="51.7710917350" lon="-2.1039104182"><ele>1.74</ele><time>2022-01-26T10:58:54Z</time></trkpt><trkpt lat="51.7711036373" lon="-2.1038859431"><ele>2.09</ele><time>2022-01-26T10:59:13Z</time></trkpt><trkpt lat="51.7711026315" lon="-2.1038851887"><ele>0.45</ele><time>2022-01-26T10:59:20Z</time></trkpt><trkpt lat="51.7711017095" lon="-2.1038822550"><ele>3.20</ele><time>2022-01-26T10:59:25Z</time></trkpt><trkpt lat="51.7711292859" lon="-2.1039666608"><ele>1.61</ele><time>2022-01-26T10:59:55Z</time></trkpt><trkpt lat="51.7711268552" lon="-2.1039697621"><ele>1.37</ele><time>2022-01-26T11:00:18Z</time></trkpt><trkpt lat="51.7711219937" lon="-2.1039421018"><ele>2.12</ele><time>2022-01-26T11:00:47Z</time></trkpt><trkpt lat="51.7711095884" lon="-2.1039202251"><ele>1.65</ele><time>2022-01-26T11:01:13Z</time></trkpt><trkpt lat="51.7711056489" lon="-2.1038968395"><ele>1.72</ele><time>2022-01-26T11:01:35Z</time></trkpt><trkpt lat="51.7710963450" lon="-2.1039539203"><ele>1.72</ele><time>2022-01-26T11:02:05Z</time></trkpt><trkpt lat="51.7710657511" lon="-2.1041479614"><ele>1.72</ele><time>2022-01-26T11:02:21Z</time></trkpt><trkpt lat="51.7710451316" lon="-2.1044171043"><ele>0.01</ele><time>2022-01-26T11:02:39Z</time></trkpt><trkpt lat="51.7710162140" lon="-2.1047253069"><ele>-1.45</ele><time>2022-01-26T11:02:59Z</time></trkpt><trkpt lat="51.7710651644" lon="-2.1049044281"><ele>-3.25</ele><time>2022-01-26T11:03:17Z</time></trkpt><trkpt lat="51.7711280286" lon="-2.1050775982"><ele>-5.06</ele><time>2022-01-26T11:03:36Z</time></trkpt><trkpt lat="51.7711744644" lon="-2.1051351819"><ele>-4.98</ele><time>2022-01-26T11:03:57Z</time></trkpt><trkpt lat="51.7712216545" lon="-2.1052604914"><ele>-6.97</ele><time>2022-01-26T11:04:17Z</time></trkpt><trkpt lat="51.7712219898" lon="-2.1053763293"><ele>-7.56</ele><time>2022-01-26T11:04:39Z</time></trkpt><trkpt lat="51.7712727841" lon="-2.1055960190"><ele>-9.54</ele><time>2022-01-26T11:04:56Z</time></trkpt><trkpt lat="51.7712638155" lon="-2.1057718713"><ele>-11.68</ele><time>2022-01-26T11:05:11Z</time></trkpt><trkpt lat="51.7712195590" lon="-2.1058083326"><ele>-13.96</ele><time>2022-01-26T11:05:32Z</time></trkpt><trkpt lat="51.7711898033" lon="-2.1058556065"><ele>-13.16</ele><time>2022-01-26T11:05:58Z</time></trkpt><trkpt lat="51.7713032942" lon="-2.1059473045"><ele>-13.86</ele><time>2022-01-26T11:06:21Z</time></trkpt><trkpt lat="51.7712972593" lon="-2.1060770564"><ele>-14.35</ele><time>2022-01-26T11:06:45Z</time></trkpt><trkpt lat="51.7712872848" lon="-2.1061683353"><ele>-16.18</ele><time>2022-01-26T11:07:07Z</time></trkpt><trkpt lat="51.7712611333" lon="-2.1062649786"><ele>-16.06</ele><time>2022-01-26T11:07:31Z</time></trkpt><trkpt lat="51.7712404300" lon="-2.1062586084"><ele>-16.33</ele><time>2022-01-26T11:07:50Z</time></trkpt><trkpt lat="51.7712110933" lon="-2.1064307727"><ele>-16.98</ele><time>2022-01-26T11:08:15Z</time></trkpt><trkpt lat="51.7711729556" lon="-2.1066257358"><ele>-16.91</ele><time>2022-01-26T11:08:37Z</time></trkpt><trkpt lat="51.7711218260" lon="-2.1068765223"><ele>-16.03</ele><time>2022-01-26T11:08:55Z</time></trkpt><trkpt lat="51.7711067386" lon="-2.1069226228"><ele>-15.94</ele><time>2022-01-26T11:08:58Z</time></trkpt><trkpt lat="51.7710689362" lon="-2.1071771812"><ele>-15.44</ele><time>2022-01-26T11:09:16Z</time></trkpt><trkpt lat="51.7710417788" lon="-2.1073051728"><ele>-15.25</ele><time>2022-01-26T11:09:35Z</time></trkpt><trkpt lat="51.7710388452" lon="-2.1073077712"><ele>-13.78</ele><time>2022-01-26T11:09:38Z</time></trkpt><trkpt lat="51.7710032221" lon="-2.1072915941"><ele>-14.48</ele><time>2022-01-26T11:10:05Z</time></trkpt><trkpt lat="51.7710174713" lon="-2.1074871439"><ele>-15.35</ele><time>2022-01-26T11:10:30Z</time></trkpt><trkpt lat="51.7710675113" lon="-2.1076923329"><ele>-14.24</ele><time>2022-01-26T11:10:43Z</time></trkpt><trkpt lat="51.7711146176" lon="-2.1079731267"><ele>-13.94</ele><time>2022-01-26T11:11:00Z</time></trkpt><trkpt lat="51.7711795773" lon="-2.1082369052"><ele>-13.13</ele><time>2022-01-26T11:11:19Z</time></trkpt><trkpt lat="51.7712379154" lon="-2.1084048785"><ele>-12.22</ele><time>2022-01-26T11:11:38Z</time></trkpt><trkpt lat="51.7713016178" lon="-2.1085426770"><ele>-11.25</ele><time>2022-01-26T11:11:54Z</time></trkpt><trkpt lat="51.7713906337" lon="-2.1086544078"><ele>-11.08</ele><time>2022-01-26T11:12:15Z</time></trkpt><trkpt lat="51.7715089023" lon="-2.1087426692"><ele>-10.61</ele><time>2022-01-26T11:12:32Z</time></trkpt><trkpt lat="51.7716093175" lon="-2.1088459343"><ele>-10.29</ele><time>2022-01-26T11:12:53Z</time></trkpt><trkpt lat="51.7716251593" lon="-2.1088166814"><ele>-9.52</ele><time>2022-01-26T11:13:31Z</time></trkpt><trkpt lat="51.7716214713" lon="-2.1088595968"><ele>-9.04</ele><time>2022-01-26T11:13:57Z</time></trkpt><trkpt lat="51.7716362234" lon="-2.1088923700"><ele>-8.64</ele><time>2022-01-26T11:14:02Z</time></trkpt><trkpt lat="51.7718044482" lon="-2.1089948807"><ele>-8.27</ele><time>2022-01-26T11:14:18Z</time></trkpt><trkpt lat="51.7719818931" lon="-2.1091061924"><ele>-6.84</ele><time>2022-01-26T11:14:35Z</time></trkpt><trkpt lat="51.7720031831" lon="-2.1091232076"><ele>-6.69</ele><time>2022-01-26T11:14:37Z</time></trkpt><trkpt lat="51.7721621878" lon="-2.1091907658"><ele>-5.55</ele><time>2022-01-26T11:14:52Z</time></trkpt><trkpt lat="51.7722068634" lon="-2.1092097089"><ele>-5.04</ele><time>2022-01-26T11:15:12Z</time></trkpt><trkpt lat="51.7722913530" lon="-2.1092626825"><ele>-4.98</ele><time>2022-01-26T11:15:35Z</time></trkpt><trkpt lat="51.7724372819" lon="-2.1092278976"><ele>-4.27</ele><time>2022-01-26T11:15:55Z</time></trkpt><trkpt lat="51.7725656927" lon="-2.1091635246"><ele>-2.33</ele><time>2022-01-26T11:16:17Z</time></trkpt><trkpt lat="51.7726263776" lon="-2.1091274824"><ele>-2.42</ele><time>2022-01-26T11:16:35Z</time></trkpt><trkpt lat="51.7726796027" lon="-2.1090881713"><ele>-1.84</ele><time>2022-01-26T11:17:00Z</time></trkpt><trkpt lat="51.7727251165" lon="-2.1089886781"><ele>-0.23</ele><time>2022-01-26T11:17:19Z</time></trkpt><trkpt lat="51.7727477476" lon="-2.1089609340"><ele>-0.28</ele><time>2022-01-26T11:17:29Z</time></trkpt><trkpt lat="51.7728105281" lon="-2.1088160109"><ele>0.79</ele><time>2022-01-26T11:17:54Z</time></trkpt><trkpt lat="51.7728433851" lon="-2.1087564994"><ele>3.06</ele><time>2022-01-26T11:18:18Z</time></trkpt><trkpt lat="51.7728641722" lon="-2.1087008435"><ele>3.71</ele><time>2022-01-26T11:18:41Z</time></trkpt><trkpt lat="51.7728837021" lon="-2.1086495463"><ele>4.32</ele><time>2022-01-26T11:18:52Z</time></trkpt><trkpt lat="51.7729534395" lon="-2.1085000969"><ele>6.02</ele><time>2022-01-26T11:19:16Z</time></trkpt><trkpt lat="51.7729959358" lon="-2.1084267553"><ele>6.52</ele><time>2022-01-26T11:19:39Z</time></trkpt><trkpt lat="51.7731048167" lon="-2.1082372405"><ele>8.75</ele><time>2022-01-26T11:20:02Z</time></trkpt><trkpt lat="51.7731820140" lon="-2.1081002802"><ele>10.63</ele><time>2022-01-26T11:20:22Z</time></trkpt><trkpt lat="51.7731965147" lon="-2.1080747992"><ele>10.98</ele><time>2022-01-26T11:20:27Z</time></trkpt><trkpt lat="51.7733459640" lon="-2.1078479011"><ele>12.72</ele><time>2022-01-26T11:20:53Z</time></trkpt><trkpt lat="51.7733338941" lon="-2.1078287903"><ele>13.80</ele><time>2022-01-26T11:21:15Z</time></trkpt><trkpt lat="51.7733126879" lon="-2.1078190673"><ele>10.70</ele><time>2022-01-26T11:21:43Z</time></trkpt><trkpt lat="51.7733257636" lon="-2.1078004595"><ele>13.97</ele><time>2022-01-26T11:21:47Z</time></trkpt><trkpt lat="51.7733277753" lon="-2.1078173909"><ele>15.69</ele><time>2022-01-26T11:21:50Z</time></trkpt><trkpt lat="51.7732565291" lon="-2.1078818478"><ele>13.49</ele><time>2022-01-26T11:22:11Z</time></trkpt><trkpt lat="51.7733238358" lon="-2.1078266110"><ele>12.77</ele><time>2022-01-26T11:23:00Z</time></trkpt><trkpt lat="51.7733691819" lon="-2.1077913232"><ele>13.53</ele><time>2022-01-26T11:23:20Z</time></trkpt><trkpt lat="51.7734398413" lon="-2.1076591406"><ele>15.39</ele><time>2022-01-26T11:23:36Z</time></trkpt><trkpt lat="51.7735485546" lon="-2.1073729824"><ele>16.73</ele><time>2022-01-26T11:23:54Z</time></trkpt><trkpt lat="51.7737087328" lon="-2.1071054321"><ele>19.13</ele><time>2022-01-26T11:24:16Z</time></trkpt><trkpt lat="51.7737967428" lon="-2.1069837268"><ele>19.95</ele><time>2022-01-26T11:24:31Z</time></trkpt><trkpt lat="51.7739623692" lon="-2.1068181843"><ele>21.66</ele><time>2022-01-26T11:24:52Z</time></trkpt><trkpt lat="51.7741274089" lon="-2.1066347882"><ele>22.63</ele><time>2022-01-26T11:25:13Z</time></trkpt><trkpt lat="51.7742667999" lon="-2.1065366361"><ele>24.69</ele><time>2022-01-26T11:25:34Z</time></trkpt><trkpt lat="51.7743035965" lon="-2.1064898651"><ele>25.47</ele><time>2022-01-26T11:25:56Z</time></trkpt><trkpt lat="51.7743476853" lon="-2.1065207105"><ele>25.63</ele><time>2022-01-26T11:26:13Z</time></trkpt><trkpt lat="51.7743640300" lon="-2.1065265778"><ele>25.49</ele><time>2022-01-26T11:26:37Z</time></trkpt><trkpt lat="51.7743873317" lon="-2.1065261588"><ele>26.33</ele><time>2022-01-26T11:26:55Z</time></trkpt><trkpt lat="51.7744830530" lon="-2.1063867677"><ele>26.64</ele><time>2022-01-26T11:27:15Z</time></trkpt><trkpt lat="51.7745904252" lon="-2.1062270924"><ele>27.59</ele><time>2022-01-26T11:27:29Z</time></trkpt><trkpt lat="51.7747013178" lon="-2.1060080733"><ele>29.15</ele><time>2022-01-26T11:27:47Z</time></trkpt><trkpt lat="51.7748469952" lon="-2.1057656687"><ele>31.26</ele><time>2022-01-26T11:28:04Z</time></trkpt><trkpt lat="51.7749238573" lon="-2.1055981144"><ele>31.77</ele><time>2022-01-26T11:28:25Z</time></trkpt><trkpt lat="51.7749667726" lon="-2.1053816937"><ele>32.04</ele><time>2022-01-26T11:28:44Z</time></trkpt><trkpt lat="51.7750479095" lon="-2.1052202582"><ele>32.55</ele><time>2022-01-26T11:29:04Z</time></trkpt><trkpt lat="51.7750584707" lon="-2.1052114572"><ele>32.56</ele><time>2022-01-26T11:29:09Z</time></trkpt><trkpt lat="51.7750908248" lon="-2.1050688811"><ele>32.77</ele><time>2022-01-26T11:29:24Z</time></trkpt><trkpt lat="51.7751567066" lon="-2.1048512869"><ele>33.57</ele><time>2022-01-26T11:29:40Z</time></trkpt><trkpt lat="51.7751740571" lon="-2.1047507040"><ele>33.73</ele><time>2022-01-26T11:30:04Z</time></trkpt><trkpt lat="51.7752400227" lon="-2.1045729239"><ele>33.70</ele><time>2022-01-26T11:30:23Z</time></trkpt><trkpt lat="51.7752308864" lon="-2.1045881789"><ele>28.05</ele><time>2022-01-26T11:30:31Z</time></trkpt><trkpt lat="51.7752077524" lon="-2.1046011709"><ele>31.33</ele><time>2022-01-26T11:30:40Z</time></trkpt><trkpt lat="51.7752512544" lon="-2.1045972314"><ele>38.14</ele><time>2022-01-26T11:30:45Z</time></trkpt><trkpt lat="51.7752413638" lon="-2.1045901906"><ele>40.00</ele><time>2022-01-26T11:30:47Z</time></trkpt><trkpt lat="51.7752540205" lon="-2.1045348700"><ele>36.65</ele><time>2022-01-26T11:30:54Z</time></trkpt><trkpt lat="51.7752585467" lon="-2.1045274101"><ele>35.84</ele><time>2022-01-26T11:30:56Z</time></trkpt><trkpt lat="51.7752882186" lon="-2.1043613646"><ele>35.01</ele><time>2022-01-26T11:31:17Z</time></trkpt><trkpt lat="51.7753211595" lon="-2.1041343827"><ele>34.52</ele><time>2022-01-26T11:31:37Z</time></trkpt><trkpt lat="51.7753546871" lon="-2.1039383300"><ele>34.44</ele><time>2022-01-26T11:32:00Z</time></trkpt><trkpt lat="51.7753820121" lon="-2.1037657466"><ele>34.75</ele><time>2022-01-26T11:32:15Z</time></trkpt><trkpt lat="51.7754510790" lon="-2.1036186442"><ele>34.91</ele><time>2022-01-26T11:32:37Z</time></trkpt><trkpt lat="51.7755610496" lon="-2.1034311410"><ele>34.91</ele><time>2022-01-26T11:33:01Z</time></trkpt><trkpt lat="51.7755572777" lon="-2.1033045743"><ele>34.91</ele><time>2022-01-26T11:33:21Z</time></trkpt><trkpt lat="51.7756014504" lon="-2.1030245349"><ele>35.22</ele><time>2022-01-26T11:33:38Z</time></trkpt><trkpt lat="51.7756346427" lon="-2.1029019915"><ele>35.59</ele><time>2022-01-26T11:33:55Z</time></trkpt><trkpt lat="51.7756792344" lon="-2.1027752571"><ele>35.91</ele><time>2022-01-26T11:34:06Z</time></trkpt><trkpt lat="51.7757093254" lon="-2.1024947148"><ele>35.11</ele><time>2022-01-26T11:34:24Z</time></trkpt><trkpt lat="51.7757353932" lon="-2.1022433415"><ele>33.66</ele><time>2022-01-26T11:34:44Z</time></trkpt><trkpt lat="51.7757353093" lon="-2.1022364683"><ele>33.45</ele><time>2022-01-26T11:34:45Z</time></trkpt><trkpt lat="51.7758068908" lon="-2.1020379849"><ele>35.77</ele><time>2022-01-26T11:35:01Z</time></trkpt><trkpt lat="51.7758957390" lon="-2.1017357334"><ele>35.48</ele><time>2022-01-26T11:35:24Z</time></trkpt><trkpt lat="51.7759369779" lon="-2.1014724579"><ele>35.53</ele><time>2022-01-26T11:35:44Z</time></trkpt><trkpt lat="51.7759974115" lon="-2.1012640838"><ele>35.28</ele><time>2022-01-26T11:36:06Z</time></trkpt><trkpt lat="51.7760037817" lon="-2.1011583041"><ele>35.17</ele><time>2022-01-26T11:36:14Z</time></trkpt><trkpt lat="51.7760477029" lon="-2.1008988842"><ele>35.34</ele><time>2022-01-26T11:36:31Z</time></trkpt><trkpt lat="51.7761104833" lon="-2.1006800327"><ele>35.14</ele><time>2022-01-26T11:36:48Z</time></trkpt><trkpt lat="51.7761571705" lon="-2.1004300006"><ele>35.18</ele><time>2022-01-26T11:37:07Z</time></trkpt>            <trkpt lat="51.7766519" lon="-2.0980331"/>            <trkpt lat="51.7762385" lon="-2.0964138"/>            <trkpt lat="51.7760265" lon="-2.0959720"/>            <trkpt lat="51.7754609" lon="-2.0949082"/>            <trkpt lat="51.7774549" lon="-2.0931797"/>            <trkpt lat="51.7779103" lon="-2.0929191"/>            <trkpt lat="51.7780318" lon="-2.0927722"/></trkseg></trk></gpx>